Time;durP1;ratioP1;P1;durP2;ratioP2;P2;SDS_P1;SDS_P2;PMS_P1;PMS_P2;Temp;Humidity;BMP_temperature;BMP_pressure;BME280_temperature;BME280_humidity;BME280_pressure;Samples;Min_cycle;Max_cycle;Signal;HPM_P1;HPM_P2
2022/12/14 00:00:51;;;;;;;32.95;15.60;;;;;;;;;;5027269;28;20041;-73
2022/12/14 00:03:17;;;;;;;36.80;14.73;;;;;;;;;;5029520;28;20374;-74
2022/12/14 00:05:43;;;;;;;34.30;14.00;;;;;;;;;;5024556;28;20120;-73
2022/12/14 00:08:09;;;;;;;38.10;16.38;;;;;;;;;;5005781;28;20041;-73
2022/12/14 00:10:35;;;;;;;27.15;12.95;;;;;;;;;;5016771;28;20080;-73
2022/12/14 00:13:01;;;;;;;30.60;12.15;;;;;;;;;;5008834;28;20034;-73
2022/12/14 00:15:27;;;;;;;28.92;12.75;;;;;;;;;;5020368;28;20091;-73
2022/12/14 00:17:52;;;;;;;38.25;14.50;;;;;;;;;;5026201;28;20033;-73
2022/12/14 00:20:18;;;;;;;28.33;12.98;;;;;;;;;;5021583;28;20489;-74
2022/12/14 00:22:43;;;;;;;32.35;14.80;;;;;;;;;;5017201;28;20045;-74
2022/12/14 00:25:09;;;;;;;25.83;12.65;;;;;;;;;;5025232;28;20040;-73
2022/12/14 00:27:34;;;;;;;29.30;15.20;;;;;;;;;;5023481;28;20033;-73
2022/12/14 00:30:00;;;;;;;26.40;13.48;;;;;;;;;;5039811;28;20048;-73
2022/12/14 00:32:26;;;;;;;36.80;15.13;;;;;;;;;;5019930;28;20045;-73
2022/12/14 00:34:51;;;;;;;35.67;15.20;;;;;;;;;;5023029;28;20454;-74
2022/12/14 00:37:16;;;;;;;27.10;14.00;;;;;;;;;;5022085;28;20168;-73
2022/12/14 00:39:42;;;;;;;31.73;14.55;;;;;;;;;;5019820;28;20069;-73
2022/12/14 00:42:07;;;;;;;27.80;13.32;;;;;;;;;;5023427;28;20029;-74
2022/12/14 00:44:33;;;;;;;34.17;14.25;;;;;;;;;;5029097;28;20045;-73
2022/12/14 00:46:58;;;;;;;28.63;12.40;;;;;;;;;;5025455;28;20037;-73
2022/12/14 00:49:24;;;;;;;37.10;14.35;;;;;;;;;;5050851;28;20426;-73
2022/12/14 00:51:49;;;;;;;27.40;12.43;;;;;;;;;;5024224;28;20539;-73
2022/12/14 00:54:14;;;;;;;27.90;14.27;;;;;;;;;;5045689;28;20140;-73
2022/12/14 00:56:40;;;;;;;32.35;13.95;;;;;;;;;;5028880;28;20026;-73
2022/12/14 00:59:05;;;;;;;27.65;13.18;;;;;;;;;;5022918;28;20093;-73
2022/12/14 01:01:31;;;;;;;31.30;14.40;;;;;;;;;;5016987;28;20056;-73
2022/12/14 01:04:15;;;;;;;30.40;12.52;;;;;;;;;;5020882;28;20116;-73
2022/12/14 01:06:45;;;;;;;38.20;15.23;;;;;;;;;;5021771;28;20049;-73
2022/12/14 01:09:10;;;;;;;31.75;14.43;;;;;;;;;;5022749;28;20037;-73
2022/12/14 01:11:36;;;;;;;34.88;15.07;;;;;;;;;;5019630;28;20815;-73
2022/12/14 01:14:01;;;;;;;33.63;13.23;;;;;;;;;;5011658;28;20029;-74
2022/12/14 01:16:27;;;;;;;28.02;12.45;;;;;;;;;;5020622;28;20112;-73
2022/12/14 01:18:52;;;;;;;28.17;11.48;;;;;;;;;;5026881;28;20033;-72
2022/12/14 01:21:20;;;;;;;27.80;12.70;;;;;;;;;;5018566;28;20363;-73
2022/12/14 01:23:47;;;;;;;31.38;13.35;;;;;;;;;;5005309;28;20072;-72
2022/12/14 01:26:13;;;;;;;36.10;14.43;;;;;;;;;;5026017;28;20045;-73
2022/12/14 01:28:39;;;;;;;28.90;11.70;;;;;;;;;;5010337;28;20033;-73
2022/12/14 01:31:13;;;;;;;28.05;13.23;;;;;;;;;;5020797;28;20038;-74
2022/12/14 01:33:39;;;;;;;20.45;10.50;;;;;;;;;;5008344;28;20489;-73
2022/12/14 01:36:13;;;;;;;41.85;13.48;;;;;;;;;;5021525;28;20096;-73
2022/12/14 01:38:38;;;;;;;34.28;13.35;;;;;;;;;;5040065;28;20037;-73
2022/12/14 01:41:05;;;;;;;29.95;12.20;;;;;;;;;;5026793;28;20033;-73
2022/12/14 01:44:03;;;;;;;31.85;13.75;;;;;;;;;;5021755;28;20363;-73
2022/12/14 01:46:37;;;;;;;31.13;13.32;;;;;;;;;;4991533;28;20512;-73
2022/12/14 01:49:13;;;;;;;25.23;12.98;;;;;;;;;;5019100;28;20046;-74
2022/12/14 01:51:43;;;;;;;29.33;12.05;;;;;;;;;;5015278;28;20485;-73
2022/12/14 01:54:10;;;;;;;29.77;12.07;;;;;;;;;;5044163;28;20021;-73
2022/12/14 01:56:37;;;;;;;24.00;10.02;;;;;;;;;;5030809;28;20038;-73
2022/12/14 01:59:06;;;;;;;29.90;12.82;;;;;;;;;;5015253;28;20038;-73
2022/12/14 02:01:32;;;;;;;21.42;12.57;;;;;;;;;;5020570;28;20021;-73
2022/12/14 02:03:57;;;;;;;23.17;13.18;;;;;;;;;;5042997;28;20041;-73
2022/12/14 02:06:33;;;;;;;15.98;8.73;;;;;;;;;;5031314;28;20378;-73
2022/12/14 02:08:59;;;;;;;35.05;12.68;;;;;;;;;;5033086;28;20046;-73
2022/12/14 02:11:42;;;;;;;28.55;12.27;;;;;;;;;;5017975;28;20084;-72
2022/12/14 02:14:07;;;;;;;38.47;12.30;;;;;;;;;;5008472;28;20481;-73
2022/12/14 02:16:33;;;;;;;24.52;8.07;;;;;;;;;;5021335;28;20117;-73
2022/12/14 02:18:58;;;;;;;29.17;12.35;;;;;;;;;;5038571;28;20064;-72
2022/12/14 02:21:38;;;;;;;24.55;11.95;;;;;;;;;;5027526;28;20033;-73
2022/12/14 02:24:15;;;;;;;20.90;9.13;;;;;;;;;;5047003;28;20133;-74
2022/12/14 02:27:02;;;;;;;34.67;12.77;;;;;;;;;;5012185;28;20428;-73
2022/12/14 02:29:28;;;;;;;19.80;8.50;;;;;;;;;;5020617;28;20128;-73
2022/12/14 02:31:57;;;;;;;27.38;11.40;;;;;;;;;;5023391;28;20117;-73
2022/12/14 02:34:41;;;;;;;28.38;10.88;;;;;;;;;;5030921;28;20050;-73
2022/12/14 02:37:24;;;;;;;34.25;13.10;;;;;;;;;;5016218;28;20500;-73
2022/12/14 02:40:11;;;;;;;29.90;12.05;;;;;;;;;;5028745;28;20474;-73
2022/12/14 02:42:50;;;;;;;25.95;12.25;;;;;;;;;;5008789;28;20046;-73
2022/12/14 02:45:42;;;;;;;28.40;12.77;;;;;;;;;;5029706;28;20045;-73
2022/12/14 02:48:17;;;;;;;32.90;12.98;;;;;;;;;;5010499;28;20129;-73
2022/12/14 02:50:50;;;;;;;21.48;10.98;;;;;;;;;;5031219;28;20041;-73
2022/12/14 02:53:45;;;;;;;30.75;12.68;;;;;;;;;;5025856;28;20057;-73
2022/12/14 02:56:15;;;;;;;38.97;13.35;;;;;;;;;;4999448;28;20068;-73
2022/12/14 02:58:49;;;;;;;27.33;11.82;;;;;;;;;;5014137;28;20498;-73
2022/12/14 03:01:16;;;;;;;24.05;10.45;;;;;;;;;;5008724;28;20038;-73
2022/12/14 03:03:42;;;;;;;26.27;11.93;;;;;;;;;;5027074;28;20041;-73
2022/12/14 03:06:24;;;;;;;26.40;12.35;;;;;;;;;;5019336;28;20397;-73
2022/12/14 03:08:52;;;;;;;32.38;12.45;;;;;;;;;;5031090;28;20037;-73
2022/12/14 03:11:20;;;;;;;36.42;14.15;;;;;;;;;;5032286;28;20124;-74
2022/12/14 03:13:55;;;;;;;33.28;13.45;;;;;;;;;;5004036;28;20409;-73
2022/12/14 03:16:29;;;;;;;32.67;13.38;;;;;;;;;;5010416;28;20497;-73
2022/12/14 03:19:02;;;;;;;31.17;13.05;;;;;;;;;;5039646;28;20115;-73
2022/12/14 03:21:31;;;;;;;25.35;11.63;;;;;;;;;;5012283;28;20066;-73
2022/12/14 03:23:59;;;;;;;26.88;11.82;;;;;;;;;;5034773;28;20473;-74
2022/12/14 03:26:33;;;;;;;24.00;10.02;;;;;;;;;;5016216;28;20049;-73
2022/12/14 03:29:28;;;;;;;25.77;11.75;;;;;;;;;;5038597;28;20489;-73
2022/12/14 03:31:59;;;;;;;34.75;13.65;;;;;;;;;;4995201;28;20049;-73
2022/12/14 03:34:34;;;;;;;20.95;10.43;;;;;;;;;;5018242;28;20042;-73
2022/12/14 03:37:15;;;;;;;28.90;11.98;;;;;;;;;;5006173;28;20385;-73
2022/12/14 03:39:42;;;;;;;24.38;9.15;;;;;;;;;;5034417;28;20529;-73
2022/12/14 03:42:16;;;;;;;17.17;8.15;;;;;;;;;;5021408;28;20042;-73
2022/12/14 03:44:47;;;;;;;30.45;13.70;;;;;;;;;;5024006;28;20045;-73
2022/12/14 03:47:27;;;;;;;25.00;11.18;;;;;;;;;;5014332;28;20069;-73
2022/12/14 03:50:10;;;;;;;28.40;12.60;;;;;;;;;;5020782;28;20084;-74
2022/12/14 03:53:00;;;;;;;23.55;9.93;;;;;;;;;;5020347;28;20041;-73
2022/12/14 03:55:28;;;;;;;19.80;8.40;;;;;;;;;;5038517;28;20039;-73
2022/12/14 03:58:19;;;;;;;18.70;7.75;;;;;;;;;;5030970;28;20069;-73
2022/12/14 04:00:56;;;;;;;26.83;10.88;;;;;;;;;;4981832;28;20401;-73
2022/12/14 04:04:02;;;;;;;21.77;10.35;;;;;;;;;;5032658;28;20042;-73
2022/12/14 04:06:51;;;;;;;27.33;12.15;;;;;;;;;;4998969;28;20125;-73
2022/12/14 04:09:40;;;;;;;23.77;10.95;;;;;;;;;;5002847;28;20056;-73
2022/12/14 04:20:43;;;;;;;21.95;8.95;;;;;;;;;;5025055;28;20096;-73
2022/12/14 04:26:12;;;;;;;21.73;10.60;;;;;;;;;;4995201;28;20104;-73
2022/12/14 04:32:03;;;;;;;22.20;10.27;;;;;;;;;;4976511;28;20041;-73
2022/12/14 04:34:29;;;;;;;18.75;7.97;;;;;;;;;;4998530;28;20062;-73
2022/12/14 04:36:57;;;;;;;29.88;12.13;;;;;;;;;;5024385;28;20046;-73
2022/12/14 04:39:50;;;;;;;19.40;10.05;;;;;;;;;;5027083;28;20049;-73
2022/12/14 04:42:17;;;;;;;34.58;11.20;;;;;;;;;;5022045;28;20046;-73
2022/12/14 04:44:48;;;;;;;28.42;11.50;;;;;;;;;;5006995;28;20037;-73
2022/12/14 04:47:16;;;;;;;26.05;12.18;;;;;;;;;;5031622;28;20042;-73
2022/12/14 04:50:03;;;;;;;24.70;10.77;;;;;;;;;;5023808;28;20084;-73
2022/12/14 04:52:29;;;;;;;17.27;8.85;;;;;;;;;;5031827;28;20050;-73
2022/12/14 04:54:56;;;;;;;30.02;11.13;;;;;;;;;;5032073;28;20041;-72
2022/12/14 04:57:37;;;;;;;21.00;10.32;;;;;;;;;;5019995;28;20481;-72
2022/12/14 05:00:04;;;;;;;30.40;12.00;;;;;;;;;;5019490;28;20480;-73
2022/12/14 05:02:54;;;;;;;26.02;9.48;;;;;;;;;;5031735;28;20064;-73
2022/12/14 05:05:28;;;;;;;12.30;5.85;;;;;;;;;;5026229;28;20034;-73
2022/12/14 05:08:01;;;;;;;22.40;10.27;;;;;;;;;;5010444;28;20041;-73
2022/12/14 05:10:39;;;;;;;8.80;5.53;;;;;;;;;;5007805;28;20045;-73
2022/12/14 05:13:10;;;;;;;13.60;7.40;;;;;;;;;;5013492;28;20572;-73
2022/12/14 05:15:45;;;;;;;22.90;9.55;;;;;;;;;;5009986;28;20038;-73
2022/12/14 05:18:11;;;;;;;19.13;8.95;;;;;;;;;;4983445;28;20100;-73
2022/12/14 05:20:36;;;;;;;26.00;9.80;;;;;;;;;;5027245;28;20533;-73
2022/12/14 05:23:02;;;;;;;25.67;11.10;;;;;;;;;;5025431;28;20084;-73
2022/12/14 05:25:27;;;;;;;24.95;8.35;;;;;;;;;;5017154;28;20369;-73
2022/12/14 05:27:52;;;;;;;21.92;8.85;;;;;;;;;;5020546;28;20382;-73
2022/12/14 05:30:18;;;;;;;22.73;9.48;;;;;;;;;;5012674;28;20061;-73
2022/12/14 05:32:44;;;;;;;22.30;10.57;;;;;;;;;;5043853;28;20037;-73
2022/12/14 05:35:10;;;;;;;26.50;11.05;;;;;;;;;;5003611;28;20049;-73
2022/12/14 05:37:36;;;;;;;27.23;10.52;;;;;;;;;;5032281;28;20029;-73
2022/12/14 05:40:01;;;;;;;27.85;10.20;;;;;;;;;;5004800;28;20394;-74
2022/12/14 05:42:27;;;;;;;25.38;9.65;;;;;;;;;;5030927;28;20042;-74
2022/12/14 05:44:52;;;;;;;24.20;10.10;;;;;;;;;;5026041;28;20033;-73
2022/12/14 05:47:17;;;;;;;24.35;11.43;;;;;;;;;;5022772;28;20519;-73
2022/12/14 05:49:43;;;;;;;23.58;11.15;;;;;;;;;;5029929;28;20046;-73
2022/12/14 05:52:08;;;;;;;21.58;8.98;;;;;;;;;;5025005;28;20041;-73
2022/12/14 05:54:33;;;;;;;24.13;10.93;;;;;;;;;;5021967;28;20527;-73
2022/12/14 05:56:59;;;;;;;28.13;10.50;;;;;;;;;;5025978;28;20033;-73
2022/12/14 05:59:24;;;;;;;25.60;11.20;;;;;;;;;;5022917;28;20478;-73
2022/12/14 06:01:50;;;;;;;24.85;10.20;;;;;;;;;;5015974;28;20106;-73
2022/12/14 06:04:17;;;;;;;29.17;11.48;;;;;;;;;;5022946;28;20045;-73
2022/12/14 06:06:43;;;;;;;25.13;10.38;;;;;;;;;;5041963;28;20502;-73
2022/12/14 06:09:09;;;;;;;27.70;11.68;;;;;;;;;;5031777;28;20058;-73
2022/12/14 06:11:39;;;;;;;21.15;9.23;;;;;;;;;;5029501;28;20128;-73
2022/12/14 06:14:06;;;;;;;25.60;11.82;;;;;;;;;;5016125;28;20037;-73
2022/12/14 06:16:32;;;;;;;28.83;12.23;;;;;;;;;;5025084;28;20103;-73
2022/12/14 06:19:00;;;;;;;30.33;10.93;;;;;;;;;;5026172;28;20499;-73
2022/12/14 06:21:28;;;;;;;39.85;11.27;;;;;;;;;;5008375;28;20036;-73
2022/12/14 06:23:54;;;;;;;31.65;13.15;;;;;;;;;;5015494;28;20113;-73
2022/12/14 06:26:19;;;;;;;13.70;6.55;;;;;;;;;;5024483;28;20047;-73
2022/12/14 06:28:45;;;;;;;31.95;12.65;;;;;;;;;;5027770;28;20108;-73
2022/12/14 06:31:17;;;;;;;33.00;12.13;;;;;;;;;;5019755;28;20425;-74
2022/12/14 06:33:43;;;;;;;37.53;13.60;;;;;;;;;;5031947;28;20500;-73
2022/12/14 06:36:32;;;;;;;36.90;12.73;;;;;;;;;;5000362;28;20104;-73
2022/12/14 06:39:01;;;;;;;32.50;12.27;;;;;;;;;;5000551;28;20466;-72
2022/12/14 06:41:27;;;;;;;28.80;12.48;;;;;;;;;;5032827;28;20068;-74
2022/12/14 06:43:52;;;;;;;33.83;12.40;;;;;;;;;;5020765;28;20394;-73
2022/12/14 06:46:20;;;;;;;32.05;14.15;;;;;;;;;;5029155;28;20488;-73
2022/12/14 06:48:53;;;;;;;42.53;13.70;;;;;;;;;;5035924;28;20077;-73
2022/12/14 06:51:22;;;;;;;21.50;9.40;;;;;;;;;;5031834;28;20397;-73
2022/12/14 06:53:52;;;;;;;31.30;11.40;;;;;;;;;;5000778;28;20033;-73
2022/12/14 06:56:19;;;;;;;30.80;12.80;;;;;;;;;;5032605;28;20105;-73
2022/12/14 06:58:44;;;;;;;23.27;11.38;;;;;;;;;;5041410;28;20045;-73
2022/12/14 07:01:14;;;;;;;22.67;10.90;;;;;;;;;;5032220;28;20420;-73
2022/12/14 07:03:41;;;;;;;32.78;12.90;;;;;;;;;;5010323;28;20041;-73
2022/12/14 07:06:06;;;;;;;22.85;8.57;;;;;;;;;;5015670;28;20049;-73
2022/12/14 07:08:34;;;;;;;23.88;9.60;;;;;;;;;;5004135;28;20489;-73
2022/12/14 07:11:07;;;;;;;23.17;9.38;;;;;;;;;;5004833;28;20048;-73
2022/12/14 07:13:33;;;;;;;25.13;12.18;;;;;;;;;;5033266;28;20470;-73
2022/12/14 07:16:00;;;;;;;33.58;11.15;;;;;;;;;;5001919;28;20037;-73
2022/12/14 07:18:25;;;;;;;19.75;9.55;;;;;;;;;;5024955;28;20041;-73
2022/12/14 07:21:11;;;;;;;28.42;12.05;;;;;;;;;;5003621;28;20065;-72
2022/12/14 07:23:38;;;;;;;26.17;10.35;;;;;;;;;;5034595;28;20045;-73
2022/12/14 07:26:13;;;;;;;26.13;10.68;;;;;;;;;;5021151;28;20034;-73
2022/12/14 07:28:39;;;;;;;25.67;9.60;;;;;;;;;;5026617;28;20047;-73
2022/12/14 07:31:07;;;;;;;20.15;7.97;;;;;;;;;;5034244;28;20045;-73
2022/12/14 07:33:32;;;;;;;25.63;10.48;;;;;;;;;;5004920;28;20033;-73
2022/12/14 07:36:05;;;;;;;16.73;7.80;;;;;;;;;;4991100;28;20038;-73
2022/12/14 07:38:32;;;;;;;18.85;8.20;;;;;;;;;;5012607;28;20444;-73
2022/12/14 07:41:07;;;;;;;18.65;9.57;;;;;;;;;;4994992;28;20072;-73
2022/12/14 07:43:32;;;;;;;26.05;9.93;;;;;;;;;;5004518;28;20444;-72
2022/12/14 07:46:02;;;;;;;29.88;9.18;;;;;;;;;;5024773;28;20077;-72
2022/12/14 07:48:28;;;;;;;20.80;8.45;;;;;;;;;;5023137;28;20041;-73
2022/12/14 07:50:54;;;;;;;19.50;8.30;;;;;;;;;;5003760;28;20374;-73
2022/12/14 07:53:19;;;;;;;18.88;8.70;;;;;;;;;;5019765;28;20083;-73
2022/12/14 07:55:45;;;;;;;18.15;9.23;;;;;;;;;;5015891;28;20499;-72
2022/12/14 07:58:10;;;;;;;17.58;8.18;;;;;;;;;;5023342;28;20045;-73
2022/12/14 08:00:36;;;;;;;17.83;8.32;;;;;;;;;;5013794;28;20128;-72
2022/12/14 08:03:01;;;;;;;24.25;7.57;;;;;;;;;;5018536;28;20030;-72
2022/12/14 08:05:27;;;;;;;18.40;7.95;;;;;;;;;;5021858;28;20034;-73
2022/12/14 08:07:52;;;;;;;23.98;9.77;;;;;;;;;;4982572;28;20049;-74
2022/12/14 08:10:17;;;;;;;22.10;8.63;;;;;;;;;;5028119;28;20097;-73
2022/12/14 08:12:43;;;;;;;23.38;8.20;;;;;;;;;;5029924;28;20030;-73
2022/12/14 08:15:08;;;;;;;19.73;10.70;;;;;;;;;;5029617;28;20034;-73
2022/12/14 08:17:34;;;;;;;24.25;9.80;;;;;;;;;;5027082;28;20050;-73
2022/12/14 08:19:59;;;;;;;21.23;7.35;;;;;;;;;;5022554;28;20120;-73
2022/12/14 08:22:24;;;;;;;21.25;8.93;;;;;;;;;;5024056;28;20042;-73
2022/12/14 08:24:50;;;;;;;24.63;10.13;;;;;;;;;;5017523;28;20097;-73
2022/12/14 08:27:15;;;;;;;23.23;9.43;;;;;;;;;;5010899;28;20466;-74
2022/12/14 08:29:41;;;;;;;24.45;9.10;;;;;;;;;;5020580;28;20505;-73
2022/12/14 08:32:06;;;;;;;22.25;8.73;;;;;;;;;;5019042;28;20055;-74
2022/12/14 08:34:32;;;;;;;23.70;9.93;;;;;;;;;;5028018;28;20046;-73
2022/12/14 08:36:57;;;;;;;30.33;10.75;;;;;;;;;;5022269;28;20037;-74
2022/12/14 08:39:23;;;;;;;26.38;11.15;;;;;;;;;;5026120;28;20057;-73
2022/12/14 08:41:48;;;;;;;27.38;11.93;;;;;;;;;;5027332;28;20543;-73
2022/12/14 08:44:15;;;;;;;24.00;9.65;;;;;;;;;;5020751;28;20120;-74
2022/12/14 08:46:41;;;;;;;30.88;11.30;;;;;;;;;;5007186;28;20025;-74
2022/12/14 08:49:06;;;;;;;27.88;10.75;;;;;;;;;;5003631;28;20096;-73
2022/12/14 08:51:36;;;;;;;27.10;12.13;;;;;;;;;;5031654;28;20037;-73
2022/12/14 08:54:01;;;;;;;34.25;12.45;;;;;;;;;;5040853;28;20033;-72
2022/12/14 08:56:27;;;;;;;29.92;13.02;;;;;;;;;;5012704;28;20033;-76
2022/12/14 08:58:52;;;;;;;32.70;11.93;;;;;;;;;;5020605;28;20439;-74
2022/12/14 09:01:20;;;;;;;31.98;12.55;;;;;;;;;;5020874;28;20033;-74
2022/12/14 09:03:46;;;;;;;35.75;10.88;;;;;;;;;;5027585;28;20037;-74
2022/12/14 09:06:14;;;;;;;35.25;12.27;;;;;;;;;;5019182;28;20512;-74
2022/12/14 09:08:39;;;;;;;24.52;11.68;;;;;;;;;;5018348;28;20034;-76
2022/12/14 09:11:05;;;;;;;28.00;13.65;;;;;;;;;;5024177;28;20128;-74
2022/12/14 09:13:32;;;;;;;34.67;11.93;;;;;;;;;;5025141;28;20497;-74
2022/12/14 09:16:05;;;;;;;36.58;12.85;;;;;;;;;;4999878;28;20132;-74
2022/12/14 09:18:31;;;;;;;36.83;12.52;;;;;;;;;;5027125;28;20042;-73
2022/12/14 09:20:56;;;;;;;38.88;14.10;;;;;;;;;;5014849;28;20957;-74
2022/12/14 09:23:23;;;;;;;45.20;14.18;;;;;;;;;;5020133;28;20037;-74
2022/12/14 09:25:58;;;;;;;33.95;14.27;;;;;;;;;;5014500;28;20092;-74
2022/12/14 09:28:24;;;;;;;29.30;11.23;;;;;;;;;;5023606;28;20060;-73
2022/12/14 09:30:54;;;;;;;34.00;13.65;;;;;;;;;;5019926;28;20034;-73
2022/12/14 09:33:20;;;;;;;42.50;13.73;;;;;;;;;;5010886;28;20488;-74
2022/12/14 09:35:45;;;;;;;43.95;14.50;;;;;;;;;;5019131;28;20036;-74
2022/12/14 09:38:10;;;;;;;44.83;15.75;;;;;;;;;;5025420;28;20033;-73
2022/12/14 09:40:38;;;;;;;34.55;13.02;;;;;;;;;;5012311;28;20038;-73
2022/12/14 09:43:05;;;;;;;38.85;15.07;;;;;;;;;;5010571;28;20084;-73
2022/12/14 09:45:42;;;;;;;35.45;13.82;;;;;;;;;;5016222;28;20038;-74
2022/12/14 09:48:15;;;;;;;32.45;13.52;;;;;;;;;;5017768;28;20100;-73
2022/12/14 09:50:41;;;;;;;35.83;13.95;;;;;;;;;;5019015;28;20065;-73
2022/12/14 09:53:12;;;;;;;32.88;13.02;;;;;;;;;;5017640;28;20452;-73
2022/12/14 09:55:42;;;;;;;35.85;13.05;;;;;;;;;;5024828;28;20444;-74
2022/12/14 09:58:27;;;;;;;39.38;14.43;;;;;;;;;;5018250;28;20042;-73
2022/12/14 10:01:14;;;;;;;39.83;14.15;;;;;;;;;;5000281;28;20452;-73
2022/12/14 10:03:48;;;;;;;28.10;10.55;;;;;;;;;;5017958;28;20470;-73
2022/12/14 10:06:24;;;;;;;;;;;;;;;;;;5000670;28;20030;-73
2022/12/14 10:08:49;;;;;;;35.22;13.48;;;;;;;;;;5022237;28;19917;-73
2022/12/14 10:11:23;;;;;;;29.98;11.50;;;;;;;;;;5020625;28;20034;-73
2022/12/14 10:13:59;;;;;;;33.47;13.45;;;;;;;;;;5027692;28;20078;-73
2022/12/14 10:16:33;;;;;;;32.85;14.18;;;;;;;;;;5032423;28;20124;-73
2022/12/14 10:19:09;;;;;;;30.00;12.40;;;;;;;;;;5025134;28;20142;-73
2022/12/14 10:22:11;;;;;;;41.53;14.68;;;;;;;;;;5019478;28;20065;-73
2022/12/14 10:24:41;;;;;;;27.70;11.85;;;;;;;;;;5020752;28;20512;-74
2022/12/14 10:27:10;;;;;;;29.65;11.63;;;;;;;;;;5001924;28;20033;-73
2022/12/14 10:29:48;;;;;;;36.03;14.32;;;;;;;;;;5024713;28;20137;-74
2022/12/14 10:32:29;;;;;;;34.85;12.40;;;;;;;;;;5026783;28;20116;-73
2022/12/14 10:34:56;;;;;;;31.45;12.02;;;;;;;;;;5015158;28;20096;-73
2022/12/14 10:37:24;;;;;;;28.38;11.63;;;;;;;;;;5023193;28;20122;-74
2022/12/14 10:39:58;;;;;;;43.47;12.25;;;;;;;;;;5018944;28;20116;-73
2022/12/14 10:42:58;;;;;;;24.58;9.48;;;;;;;;;;5009613;28;20034;-74
2022/12/14 10:45:36;;;;;;;31.58;13.57;;;;;;;;;;5026661;28;20042;-74
2022/12/14 10:48:04;;;;;;;29.67;12.50;;;;;;;;;;5041612;28;20037;-73
2022/12/14 10:51:06;;;;;;;31.98;12.45;;;;;;;;;;5019723;28;20064;-74
2022/12/14 10:53:40;;;;;;;24.23;11.05;;;;;;;;;;5002351;28;20029;-73
2022/12/14 10:56:13;;;;;;;32.42;12.02;;;;;;;;;;5008492;28;20112;-74
2022/12/14 10:58:39;;;;;;;29.15;11.75;;;;;;;;;;4998283;28;20563;-73
2022/12/14 11:01:10;;;;;;;20.30;7.95;;;;;;;;;;5017745;28;20758;-73
2022/12/14 11:03:35;;;;;;;28.25;11.35;;;;;;;;;;5008692;28;20541;-74
2022/12/14 11:06:14;;;;;;;28.80;11.93;;;;;;;;;;4995322;28;20121;-74
2022/12/14 11:08:47;;;;;;;27.38;11.07;;;;;;;;;;5030597;28;20045;-73
2022/12/14 11:11:21;;;;;;;29.73;11.25;;;;;;;;;;5025808;28;20095;-73
2022/12/14 11:13:58;;;;;;;31.38;12.02;;;;;;;;;;4997510;28;20519;-73
2022/12/14 11:16:36;;;;;;;23.58;10.23;;;;;;;;;;5021120;28;20038;-74
2022/12/14 11:19:03;;;;;;;26.33;9.10;;;;;;;;;;5016354;28;20034;-74
2022/12/14 11:21:35;;;;;;;19.67;8.13;;;;;;;;;;5007440;28;20041;-74
2022/12/14 11:24:02;;;;;;;23.08;10.23;;;;;;;;;;4997663;28;20034;-74
2022/12/14 11:26:39;;;;;;;21.77;9.45;;;;;;;;;;5026622;28;20031;-74
2022/12/14 11:29:15;;;;;;;26.20;9.75;;;;;;;;;;4994885;28;20469;-74
2022/12/14 11:31:47;;;;;;;26.45;9.43;;;;;;;;;;5033372;28;20029;-73
2022/12/14 11:34:38;;;;;;;23.77;9.63;;;;;;;;;;4996956;28;20481;-74
2022/12/14 11:37:14;;;;;;;33.08;11.18;;;;;;;;;;5018567;28;20026;-74
2022/12/14 11:39:45;;;;;;;21.98;8.95;;;;;;;;;;5039518;28;20053;-74
2022/12/14 11:42:19;;;;;;;24.52;9.52;;;;;;;;;;5043951;28;20037;-74
2022/12/14 11:44:47;;;;;;;19.05;8.07;;;;;;;;;;5016284;28;20041;-74
2022/12/14 11:47:15;;;;;;;22.90;9.50;;;;;;;;;;5002568;28;20053;-74
2022/12/14 11:49:48;;;;;;;24.13;9.25;;;;;;;;;;5025927;28;20049;-74
2022/12/14 11:52:26;;;;;;;18.40;7.90;;;;;;;;;;5025544;28;20121;-74
2022/12/14 11:54:52;;;;;;;18.33;8.05;;;;;;;;;;4998567;28;20034;-74
2022/12/14 11:57:29;;;;;;;21.67;8.77;;;;;;;;;;5024605;28;20045;-74
2022/12/14 12:00:04;;;;;;;20.15;9.27;;;;;;;;;;5012754;28;20067;-74
2022/12/14 12:02:33;;;;;;;22.70;9.70;;;;;;;;;;5013223;28;20683;-74
2022/12/14 12:05:10;;;;;;;27.67;10.15;;;;;;;;;;5023928;28;20374;-75
2022/12/14 12:07:43;;;;;;;21.50;8.63;;;;;;;;;;4996197;28;20037;-74
2022/12/14 12:10:11;;;;;;;22.75;8.43;;;;;;;;;;4998934;28;20042;-74
2022/12/14 12:12:45;;;;;;;21.33;8.73;;;;;;;;;;5006509;28;20042;-74
2022/12/14 12:15:19;;;;;;;20.10;8.43;;;;;;;;;;5023123;28;20104;-74
2022/12/14 12:17:48;;;;;;;;;;;;;;;;;;5015964;28;20283;-74
2022/12/14 12:20:28;;;;;;;18.98;8.70;;;;;;;;;;4994793;28;19944;-74
2022/12/14 12:22:57;;;;;;;21.67;8.05;;;;;;;;;;4980651;28;20050;-75
2022/12/14 12:25:26;;;;;;;25.00;9.63;;;;;;;;;;5019041;28;20117;-74
2022/12/14 12:28:05;;;;;;;23.27;9.32;;;;;;;;;;5001448;28;20061;-74
2022/12/14 12:30:33;;;;;;;20.52;8.98;;;;;;;;;;5032630;28;20042;-74
2022/12/14 12:33:26;;;;;;;24.27;9.93;;;;;;;;;;5042547;28;20037;-75
2022/12/14 12:35:55;;;;;;;23.08;9.02;;;;;;;;;;5047110;28;20033;-74
2022/12/14 12:38:55;;;;;;;27.50;10.40;;;;;;;;;;4998501;28;20535;-76
2022/12/14 12:41:24;;;;;;;24.88;9.65;;;;;;;;;;5016892;28;20109;-74
2022/12/14 12:44:18;;;;;;;21.65;9.15;;;;;;;;;;5014367;28;20112;-74
2022/12/14 12:47:17;;;;;;;24.05;9.63;;;;;;;;;;4996611;28;20033;-75
2022/12/14 12:49:44;;;;;;;21.42;8.93;;;;;;;;;;4990973;28;20544;-75
2022/12/14 12:52:22;;;;;;;21.00;9.07;;;;;;;;;;5040361;28;20069;-74
2022/12/14 12:55:00;;;;;;;20.83;7.50;;;;;;;;;;5005596;28;20029;-75
2022/12/14 12:57:32;;;;;;;23.60;8.13;;;;;;;;;;4999056;28;20099;-75
2022/12/14 12:59:59;;;;;;;23.55;9.48;;;;;;;;;;5049536;28;20024;-75
2022/12/14 13:02:34;;;;;;;20.73;9.40;;;;;;;;;;4996956;28;20034;-75
2022/12/14 13:05:19;;;;;;;26.58;9.55;;;;;;;;;;5005456;28;20478;-75
2022/12/14 13:07:54;;;;;;;27.75;11.38;;;;;;;;;;5034669;28;20099;-75
2022/12/14 13:10:33;;;;;;;32.35;10.93;;;;;;;;;;5007145;28;21234;-76
2022/12/14 13:13:08;;;;;;;20.55;9.32;;;;;;;;;;5007199;28;20041;-75
2022/12/14 13:15:40;;;;;;;30.80;9.80;;;;;;;;;;5015956;28;20201;-75
2022/12/14 13:18:21;;;;;;;26.52;9.80;;;;;;;;;;5037922;28;20044;-75
2022/12/14 13:20:51;;;;;;;25.55;10.25;;;;;;;;;;5034105;28;20064;-75
2022/12/14 13:23:18;;;;;;;25.20;10.52;;;;;;;;;;5031753;28;20034;-75
2022/12/14 13:25:50;;;;;;;31.20;11.93;;;;;;;;;;5023010;28;20033;-75
2022/12/14 13:28:31;;;;;;;24.85;9.32;;;;;;;;;;5026652;28;20041;-75
2022/12/14 13:31:24;;;;;;;28.08;11.82;;;;;;;;;;5007939;28;20045;-75
2022/12/14 13:34:26;;;;;;;26.95;11.15;;;;;;;;;;5014875;28;20377;-75
2022/12/14 13:37:41;;;;;;;24.23;10.40;;;;;;;;;;4996483;28;20065;-75
2022/12/14 13:40:44;;;;;;;29.85;9.77;;;;;;;;;;4969069;28;20050;-75
2022/12/14 13:43:38;;;;;;;29.20;10.80;;;;;;;;;;5015280;28;20087;-75
2022/12/14 13:46:15;;;;;;;27.63;11.30;;;;;;;;;;5027956;28;20028;-75
2022/12/14 13:48:43;;;;;;;27.10;11.45;;;;;;;;;;5020086;28;20061;-75
2022/12/14 13:51:19;;;;;;;25.23;10.65;;;;;;;;;;5031373;28;20051;-75
2022/12/14 13:53:47;;;;;;;25.58;10.77;;;;;;;;;;5032681;28;20038;-75
2022/12/14 13:56:22;;;;;;;26.80;10.38;;;;;;;;;;5006621;28;20029;-75
2022/12/14 13:58:49;;;;;;;26.38;10.93;;;;;;;;;;5044308;28;20037;-75
2022/12/14 14:01:20;;;;;;;28.60;11.07;;;;;;;;;;5022524;28;20037;-75
2022/12/14 14:03:55;;;;;;;30.70;10.85;;;;;;;;;;5024101;28;20489;-75
2022/12/14 14:06:35;;;;;;;26.63;10.77;;;;;;;;;;5013406;28;20393;-74
2022/12/14 14:09:32;;;;;;;29.65;11.38;;;;;;;;;;5002498;28;20048;-75
2022/12/14 14:12:16;;;;;;;23.20;10.00;;;;;;;;;;5023611;28;20037;-75
2022/12/14 14:15:03;;;;;;;26.88;11.18;;;;;;;;;;5015720;28;20029;-75
2022/12/14 14:17:42;;;;;;;26.35;10.88;;;;;;;;;;5018599;28;20053;-74
2022/12/14 14:20:32;;;;;;;24.38;9.77;;;;;;;;;;5019613;28;20038;-75
2022/12/14 14:23:12;;;;;;;28.85;9.65;;;;;;;;;;5014232;28;20053;-74
2022/12/14 14:25:51;;;;;;;27.77;10.15;;;;;;;;;;5016780;28;20397;-75
2022/12/14 14:28:19;;;;;;;32.03;11.25;;;;;;;;;;5025240;28;20069;-74
2022/12/14 14:30:51;;;;;;;25.08;10.70;;;;;;;;;;5002532;28;20132;-74
2022/12/14 14:33:31;;;;;;;31.02;11.65;;;;;;;;;;5029810;28;20099;-74
2022/12/14 14:36:15;;;;;;;25.52;10.27;;;;;;;;;;5018887;28;20103;-75
2022/12/14 14:38:41;;;;;;;27.45;11.70;;;;;;;;;;5025436;28;20401;-75
2022/12/14 14:41:19;;;;;;;26.92;10.68;;;;;;;;;;5025437;28;20108;-74
2022/12/14 14:43:58;;;;;;;25.48;9.77;;;;;;;;;;5006842;28;20811;-75
2022/12/14 14:46:45;;;;;;;25.70;9.77;;;;;;;;;;5023945;28;20034;-74
2022/12/14 14:49:36;;;;;;;24.88;10.40;;;;;;;;;;4976024;28;20077;-74
2022/12/14 14:52:38;;;;;;;31.52;9.88;;;;;;;;;;5001460;28;20124;-74
2022/12/14 14:55:28;;;;;;;30.00;11.05;;;;;;;;;;5015280;28;20041;-74
2022/12/14 14:58:13;;;;;;;28.48;10.10;;;;;;;;;;5016173;28;20072;-74
2022/12/14 15:00:41;;;;;;;21.95;10.32;;;;;;;;;;5024708;28;20113;-74
2022/12/14 15:03:11;;;;;;;25.67;10.27;;;;;;;;;;5005570;28;20037;-73
2022/12/14 15:05:37;;;;;;;26.45;10.07;;;;;;;;;;5023020;28;20547;-74